Time;durP1;ratioP1;P1;durP2;ratioP2;P2;SDS_P1;SDS_P2;PMS_P1;PMS_P2;Temp;Humidity;BMP_temperature;BMP_pressure;BME280_temperature;BME280_humidity;BME280_pressure;Samples;Min_cycle;Max_cycle;Signal;HPM_P1;HPM_P2
2022/05/16 00:01:23;;;;;;;0.00;0.00;;;;;;;17.12;65.96;100221.13;7360163;19;20011;-59
2022/05/16 00:03:48;;;;;;;0.00;0.00;;;;;;;17.13;63.95;100230.75;7360050;19;20006;-58
2022/05/16 00:06:14;;;;;;;0.00;0.00;;;;;;;17.09;67.66;100232.72;7357798;19;20013;-58
2022/05/16 00:08:39;;;;;;;0.00;0.00;;;;;;;17.03;68.74;100232.22;7359668;19;20014;-58
2022/05/16 00:11:05;;;;;;;0.00;0.00;;;;;;;16.97;69.21;100232.56;7358858;19;20023;-58
2022/05/16 00:13:30;;;;;;;0.03;0.03;;;;;;;16.93;68.83;100225.75;7357202;19;20015;-57
2022/05/16 00:15:56;;;;;;;0.00;0.00;;;;;;;16.89;68.17;100229.53;7358620;19;20034;-59
2022/05/16 00:18:22;;;;;;;0.00;0.00;;;;;;;16.85;69.99;100227.03;7357166;19;20497;-58
2022/05/16 00:20:47;;;;;;;0.00;0.00;;;;;;;16.83;69.36;100236.00;7359681;19;20010;-58
2022/05/16 00:23:13;;;;;;;0.05;0.05;;;;;;;16.78;68.80;100228.34;7358084;19;20035;-59
2022/05/16 00:25:39;;;;;;;0.00;0.00;;;;;;;16.74;68.81;100229.44;7357295;19;20030;-58
2022/05/16 00:28:05;;;;;;;0.00;0.00;;;;;;;16.70;69.35;100229.66;7358067;19;20015;-57
2022/05/16 00:30:30;;;;;;;0.00;0.00;;;;;;;16.66;67.92;100234.25;7357152;19;20021;-58
2022/05/16 00:32:56;;;;;;;0.00;0.00;;;;;;;16.58;68.94;100223.28;7358590;19;20006;-59
2022/05/16 00:35:23;;;;;;;0.00;0.00;;;;;;;16.58;69.06;100231.19;7358939;19;20014;-58
2022/05/16 00:37:48;;;;;;;0.00;0.00;;;;;;;16.54;70.60;100227.88;7357996;19;20020;-57
2022/05/16 00:40:14;;;;;;;0.10;0.10;;;;;;;16.53;70.26;100233.25;7360092;19;20011;-59
2022/05/16 00:42:40;;;;;;;0.00;0.00;;;;;;;16.50;70.34;100233.41;7359299;19;20010;-58
2022/05/16 00:45:09;;;;;;;0.00;0.00;;;;;;;16.44;70.50;100217.91;7356674;19;20010;-59
2022/05/16 00:47:35;;;;;;;0.00;0.00;;;;;;;16.37;71.48;100211.25;7359845;19;20592;-58
2022/05/16 00:50:01;;;;;;;0.00;0.00;;;;;;;16.46;70.30;100231.84;7359475;19;20007;-58
2022/05/16 00:52:36;;;;;;;0.00;0.00;;;;;;;16.45;67.92;100227.53;7359539;19;20011;-59
2022/05/16 00:55:09;;;;;;;0.03;0.03;;;;;;;16.43;69.54;100226.78;7360456;19;20403;-58
2022/05/16 00:57:47;;;;;;;0.00;0.00;;;;;;;16.41;69.02;100229.47;7359685;19;20010;-59
2022/05/16 01:00:23;;;;;;;0.00;0.00;;;;;;;16.10;69.29;100177.59;7358462;19;20006;-58
2022/05/16 01:05:38;;;;;;;0.00;0.00;;;;;;;16.31;71.34;100217.72;7359218;19;20116;-58
2022/05/16 01:08:08;;;;;;;0.00;0.00;;;;;;;16.28;70.96;100213.47;7357811;19;20478;-58
2022/05/16 01:10:35;;;;;;;0.00;0.00;;;;;;;16.24;70.60;100219.84;7358994;19;20014;-59
2022/05/16 01:13:03;;;;;;;0.00;0.00;;;;;;;16.11;70.85;100195.09;7357546;19;20760;-59
2022/05/16 01:15:42;;;;;;;0.00;0.00;;;;;;;16.16;71.71;100216.75;7357681;19;20040;-60
2022/05/16 01:18:12;;;;;;;0.00;0.00;;;;;;;16.06;70.76;100194.47;7356648;19;20049;-60
2022/05/16 01:21:20;;;;;;;0.00;0.00;;;;;;;16.10;67.14;100206.56;7357716;19;20024;-59
2022/05/16 01:23:49;;;;;;;0.03;0.03;;;;;;;16.03;70.77;100202.56;7256016;19;2004387;-59
2022/05/16 01:26:21;;;;;;;0.00;0.00;;;;;;;16.00;70.59;100202.72;7355436;19;20054;-59
2022/05/16 01:28:47;;;;;;;0.00;0.00;;;;;;;15.94;71.87;100195.16;7358058;19;20015;-59
2022/05/16 01:31:12;;;;;;;0.00;0.00;;;;;;;15.89;71.27;100199.81;7356635;19;20006;-60
2022/05/16 01:33:38;;;;;;;0.10;0.10;;;;;;;15.80;71.18;100186.19;7357755;19;20014;-60
2022/05/16 01:36:04;;;;;;;0.00;0.00;;;;;;;15.86;72.59;100184.16;7358026;19;20003;-59
2022/05/16 01:38:31;;;;;;;0.00;0.00;;;;;;;15.82;72.25;100189.59;7356606;19;20147;-60
2022/05/16 01:41:01;;;;;;;0.00;0.00;;;;;;;15.81;73.54;100187.91;7357830;19;20576;-60
2022/05/16 01:43:30;;;;;;;0.00;0.00;;;;;;;15.81;73.09;100190.53;7357738;19;20038;-61
2022/05/16 01:45:55;;;;;;;0.00;0.00;;;;;;;15.76;73.08;100183.78;7355733;19;20472;-60
2022/05/16 01:48:22;;;;;;;0.00;0.00;;;;;;;15.78;73.20;100182.78;7352577;19;20025;-61
2022/05/16 01:50:49;;;;;;;0.00;0.00;;;;;;;15.76;73.75;100174.13;7351855;19;20011;-61
2022/05/16 01:53:15;;;;;;;;;;;;;;;15.76;66.99;100171.50;7357532;19;20006;-60
2022/05/16 01:55:40;;;;;;;0.00;0.00;;;;;;;15.65;72.30;100159.81;7359194;19;19922;-61
2022/05/16 01:58:06;;;;;;;0.00;0.00;;;;;;;15.73;73.43;100176.06;7342465;19;20095;-61
2022/05/16 02:00:33;;;;;;;0.00;0.00;;;;;;;15.71;73.10;100178.78;7353071;19;20010;-61
2022/05/16 02:03:02;;;;;;;0.00;0.00;;;;;;;15.64;71.27;100169.50;7353385;19;20049;-61
2022/05/16 02:05:28;;;;;;;0.00;0.00;;;;;;;15.61;72.86;100152.97;7354976;19;20017;-61
2022/05/16 02:07:54;;;;;;;0.00;0.00;;;;;;;15.64;72.79;100161.59;7353469;19;20022;-61
2022/05/16 02:10:23;;;;;;;0.10;0.10;;;;;;;15.64;73.05;100156.34;7353820;19;20023;-61
2022/05/16 02:12:49;;;;;;;0.00;0.00;;;;;;;15.62;72.92;100150.28;7351560;19;20010;-61
2022/05/16 02:15:19;;;;;;;0.10;0.10;;;;;;;15.59;73.35;100147.78;7353595;19;20007;-60
2022/05/16 02:17:45;;;;;;;0.00;0.00;;;;;;;15.56;74.02;100145.31;7354953;19;20588;-60
2022/05/16 02:20:11;;;;;;;0.00;0.00;;;;;;;15.43;74.16;100123.22;7352739;19;22477;-59
2022/05/16 02:25:21;;;;;;;0.00;0.00;;;;;;;15.41;73.64;100110.16;7353753;19;20023;-60
2022/05/16 02:27:47;;;;;;;0.00;0.00;;;;;;;15.53;74.56;100130.53;7355440;19;20007;-61
2022/05/16 02:30:13;;;;;;;0.00;0.00;;;;;;;15.52;74.91;100122.75;7359123;19;20508;-61
2022/05/16 02:32:39;;;;;;;0.00;0.00;;;;;;;15.53;75.41;100114.75;7360127;19;20509;-61
2022/05/16 02:35:05;;;;;;;0.00;0.00;;;;;;;15.54;76.11;100116.44;7360663;19;20011;-61
2022/05/16 02:37:31;;;;;;;0.00;0.00;;;;;;;15.57;75.44;100115.44;7358669;19;20119;-60
2022/05/16 02:39:56;;;;;;;0.10;0.10;;;;;;;15.48;74.93;100105.41;7362938;19;20031;-60
2022/05/16 02:42:22;;;;;;;0.00;0.00;;;;;;;15.58;74.57;100107.47;7357672;19;20025;-60
2022/05/16 02:44:47;;;;;;;0.00;0.00;;;;;;;15.60;75.03;100109.16;7361021;19;20017;-61
2022/05/16 02:47:15;;;;;;;0.00;0.00;;;;;;;15.61;75.96;100111.69;7361396;19;20034;-61
2022/05/16 02:49:40;;;;;;;0.00;0.00;;;;;;;15.58;76.03;100096.94;7361618;19;20130;-61
2022/05/16 02:52:06;;;;;;;0.00;0.00;;;;;;;15.59;76.74;100087.25;7358560;19;20891;-60
2022/05/16 02:54:31;;;;;;;0.10;0.10;;;;;;;15.67;76.41;100100.06;7360475;19;20443;-61
2022/05/16 02:56:58;;;;;;;0.00;0.00;;;;;;;15.68;76.08;100097.34;7361223;19;20014;-61
2022/05/16 02:59:26;;;;;;;0.00;0.00;;;;;;;15.71;75.76;100093.66;7359357;19;20014;-62
2022/05/16 03:01:51;;;;;;;0.00;0.00;;;;;;;15.71;76.20;100091.91;7359436;19;20684;-61
2022/05/16 03:04:17;;;;;;;0.00;0.00;;;;;;;15.66;76.48;100078.16;7354370;19;20007;-61
2022/05/16 03:06:42;;;;;;;0.00;0.00;;;;;;;15.74;76.03;100089.09;7358030;19;20010;-59
2022/05/16 03:09:08;;;;;;;0.00;0.00;;;;;;;15.72;75.64;100083.09;7361044;19;20006;-60
2022/05/16 03:11:33;;;;;;;0.05;0.05;;;;;;;15.64;74.69;100072.09;7360850;19;20055;-60
2022/05/16 03:13:59;;;;;;;0.00;0.00;;;;;;;15.73;75.28;100090.03;7362097;19;20010;-58
2022/05/16 03:16:25;;;;;;;0.00;0.00;;;;;;;15.71;75.78;100088.41;7357583;19;20014;-59
2022/05/16 03:18:50;;;;;;;0.08;0.08;;;;;;;15.72;75.67;100092.75;7359581;19;20014;-60
2022/05/16 03:21:16;;;;;;;0.00;0.00;;;;;;;15.55;75.02;100069.94;7362639;19;20008;-58
2022/05/16 03:23:41;;;;;;;0.00;0.00;;;;;;;15.66;74.91;100086.06;7362189;19;20047;-59
2022/05/16 03:26:06;;;;;;;0.10;0.10;;;;;;;15.67;75.16;100081.63;7361099;19;20741;-59
2022/05/16 03:28:32;;;;;;;0.00;0.00;;;;;;;15.68;75.85;100083.31;7363146;19;20034;-60
2022/05/16 03:30:59;;;;;;;0.00;0.00;;;;;;;15.66;75.73;100077.28;7360750;19;20704;-60
2022/05/16 03:33:25;;;;;;;0.00;0.00;;;;;;;15.65;75.82;100065.06;7361957;19;20042;-59
2022/05/16 03:35:55;;;;;;;0.00;0.00;;;;;;;15.67;76.44;100058.78;7364181;19;20462;-59
2022/05/16 03:41:09;;;;;;;0.00;0.00;;;;;;;15.72;76.94;100066.44;7360102;19;20048;-59
2022/05/16 03:43:37;;;;;;;0.00;0.00;;;;;;;15.77;76.46;100070.53;7362069;19;20026;-59
2022/05/16 03:46:03;;;;;;;0.00;0.00;;;;;;;15.78;76.92;100077.47;7362785;19;20414;-59
2022/05/16 03:48:29;;;;;;;0.00;0.00;;;;;;;15.79;76.05;100075.69;7363688;19;20026;-59
2022/05/16 03:50:54;;;;;;;0.00;0.00;;;;;;;15.78;76.38;100066.94;7364002;19;20010;-60
2022/05/16 03:53:20;;;;;;;0.00;0.00;;;;;;;15.46;76.73;100008.13;7361071;19;20114;-59
2022/05/16 03:55:45;;;;;;;0.00;0.00;;;;;;;15.64;77.20;100030.00;7361330;19;20018;-59
2022/05/16 03:58:10;;;;;;;0.08;0.08;;;;;;;15.80;77.40;100059.81;7361140;19;20398;-59
2022/05/16 04:00:36;;;;;;;0.10;0.10;;;;;;;15.83;77.64;100051.75;7363434;19;20011;-60
2022/05/16 04:03:02;;;;;;;0.00;0.00;;;;;;;15.85;77.38;100053.44;7359598;19;20424;-59
2022/05/16 04:05:27;;;;;;;0.00;0.00;;;;;;;15.87;77.64;100049.81;7363001;19;20006;-60
2022/05/16 04:07:53;;;;;;;0.05;0.05;;;;;;;15.88;77.12;100040.97;7363229;19;20007;-59
2022/05/16 04:10:20;;;;;;;0.00;0.00;;;;;;;15.82;77.07;100038.69;7362423;19;20700;-60
2022/05/16 04:12:45;;;;;;;0.00;0.00;;;;;;;15.88;76.48;100046.25;7362208;19;20684;-59
2022/05/16 04:15:13;;;;;;;0.10;0.10;;;;;;;15.88;77.15;100046.25;7361990;19;20010;-58
2022/05/16 04:17:39;;;;;;;0.00;0.00;;;;;;;15.88;76.91;100040.13;7362492;19;20040;-59
2022/05/16 04:20:06;;;;;;;0.00;0.00;;;;;;;15.87;77.51;100038.44;7363083;19;20038;-59
2022/05/16 04:22:32;;;;;;;0.00;0.00;;;;;;;15.88;77.82;100035.72;7362717;19;20462;-58
2022/05/16 04:24:58;;;;;;;0.00;0.00;;;;;;;15.91;77.67;100050.47;7360304;19;20010;-59
2022/05/16 04:27:23;;;;;;;0.00;0.00;;;;;;;15.87;77.03;100052.44;7363217;19;20017;-59
2022/05/16 04:29:49;;;;;;;0.00;0.00;;;;;;;15.93;77.28;100053.88;7363477;19;20484;-59
2022/05/16 04:32:14;;;;;;;0.00;0.00;;;;;;;15.92;77.58;100068.84;7362180;19;20078;-59
2022/05/16 04:34:39;;;;;;;0.10;0.10;;;;;;;15.86;76.73;100060.41;7362459;19;20010;-58
2022/05/16 04:37:05;;;;;;;0.00;0.00;;;;;;;15.92;75.71;100068.84;7361549;19;20011;-58
2022/05/16 04:39:30;;;;;;;0.00;0.00;;;;;;;15.90;75.63;100064.56;7362528;19;20364;-60
2022/05/16 04:44:40;;;;;;;0.00;0.00;;;;;;;15.83;75.83;100069.34;7361722;19;20017;-58
2022/05/16 04:47:08;;;;;;;0.00;0.00;;;;;;;15.80;75.72;100062.44;7361800;19;19998;-57
2022/05/16 04:49:33;;;;;;;0.00;0.00;;;;;;;15.58;76.54;100033.78;7362968;19;20019;-59
2022/05/16 04:51:59;;;;;;;0.00;0.00;;;;;;;15.74;76.95;100062.78;7358516;19;20010;-59
2022/05/16 04:54:25;;;;;;;0.00;0.00;;;;;;;15.72;76.52;100066.44;7362865;19;20018;-58
2022/05/16 04:56:51;;;;;;;0.10;0.10;;;;;;;15.68;76.33;100057.84;7363841;19;20014;-59
2022/05/16 04:59:18;;;;;;;0.00;0.00;;;;;;;15.67;76.32;100053.53;7360773;19;20732;-58
2022/05/16 05:01:43;;;;;;;0.00;0.00;;;;;;;15.57;76.64;100039.13;7362660;19;20049;-58
2022/05/16 05:04:09;;;;;;;0.00;0.00;;;;;;;15.62;76.97;100063.41;7362221;19;20010;-58
2022/05/16 05:06:34;;;;;;;0.00;0.00;;;;;;;15.60;77.06;100061.78;7361495;19;20014;-59
2022/05/16 05:09:00;;;;;;;0.00;0.00;;;;;;;15.52;77.21;100049.06;7362477;19;20040;-59
2022/05/16 05:16:54;;;;;;;0.00;0.00;;;;;;;15.52;76.85;100060.44;7362293;19;20023;-59
2022/05/16 05:19:19;;;;;;;0.10;0.10;;;;;;;15.50;77.55;100057.00;7361601;19;20715;-59
2022/05/16 05:21:45;;;;;;;0.00;0.00;;;;;;;15.50;77.51;100051.75;7359220;19;20018;-60
2022/05/16 05:24:10;;;;;;;0.00;0.00;;;;;;;15.46;77.16;100047.59;7361608;19;20009;-59
2022/05/16 05:26:37;;;;;;;0.00;0.00;;;;;;;15.49;76.96;100054.47;7358976;19;20082;-58
2022/05/16 05:29:03;;;;;;;0.00;0.00;;;;;;;15.48;77.33;100052.78;7358384;19;20026;-58
2022/05/16 05:31:29;;;;;;;0.00;0.00;;;;;;;15.48;77.54;100058.03;7360670;19;20011;-61
2022/05/16 05:33:55;;;;;;;0.00;0.00;;;;;;;15.48;77.95;100055.41;7362764;19;20037;-59
2022/05/16 05:36:20;;;;;;;0.00;0.00;;;;;;;15.47;77.84;100056.34;7360598;19;20014;-60
2022/05/16 05:38:51;;;;;;;0.00;0.00;;;;;;;15.45;77.22;100053.78;7361632;19;20034;-58
2022/05/16 05:41:17;;;;;;;0.00;0.00;;;;;;;15.47;78.08;100070.34;7359910;19;20843;-60
2022/05/16 05:43:42;;;;;;;0.00;0.00;;;;;;;15.46;76.96;100071.28;7361409;19;20026;-58
2022/05/16 05:46:08;;;;;;;0.00;0.00;;;;;;;15.47;77.17;100065.09;7357978;19;20035;-59
2022/05/16 05:48:33;;;;;;;0.10;0.10;;;;;;;15.46;76.54;100059.88;7361135;19;20567;-59
2022/05/16 05:50:59;;;;;;;0.00;0.00;;;;;;;15.45;77.20;100060.81;7359617;19;20375;-59
2022/05/16 05:53:24;;;;;;;0.00;0.00;;;;;;;15.34;77.04;100050.88;7362388;19;20090;-59
2022/05/16 05:55:50;;;;;;;0.00;0.00;;;;;;;15.39;77.23;100055.88;7360145;19;20519;-59
2022/05/16 05:58:16;;;;;;;0.00;0.00;;;;;;;15.39;76.51;100063.78;7353164;19;21807;-58
2022/05/16 06:00:43;;;;;;;0.00;0.00;;;;;;;15.36;76.47;100058.66;7358116;19;20014;-58
2022/05/16 06:03:08;;;;;;;0.10;0.10;;;;;;;15.32;76.51;100056.22;7359019;19;20082;-58
2022/05/16 06:05:33;;;;;;;0.00;0.00;;;;;;;15.28;76.20;100059.94;7360436;19;20084;-60
2022/05/16 06:07:59;;;;;;;0.00;0.00;;;;;;;15.26;76.81;100058.34;7365212;19;20466;-60
2022/05/16 06:10:24;;;;;;;0.05;0.05;;;;;;;15.24;76.79;100058.38;7363668;19;20606;-59
2022/05/16 06:12:50;;;;;;;0.00;0.00;;;;;;;15.23;76.97;100069.84;7365013;19;20003;-58
2022/05/16 06:15:17;;;;;;;0.00;0.00;;;;;;;15.05;77.37;100023.44;7363302;19;20014;-60
2022/05/16 06:17:43;;;;;;;0.00;0.00;;;;;;;15.20;77.92;100062.09;7363256;19;20032;-60
2022/05/16 06:20:11;;;;;;;0.00;0.00;;;;;;;15.23;77.72;100075.09;7361548;19;20011;-60
2022/05/16 06:22:38;;;;;;;0.00;0.00;;;;;;;15.24;77.42;100083.84;7363331;19;20022;-59
2022/05/16 06:27:49;;;;;;;0.00;0.00;;;;;;;15.22;77.92;100073.41;7363308;19;20050;-58
2022/05/16 06:30:15;;;;;;;0.00;0.00;;;;;;;15.27;77.98;100081.91;7364424;19;20683;-59
2022/05/16 06:32:41;;;;;;;0.00;0.00;;;;;;;15.20;77.50;100063.88;7364932;19;20025;-60
2022/05/16 06:35:07;;;;;;;0.10;0.10;;;;;;;15.35;77.27;100099.06;7363114;19;20018;-58
2022/05/16 06:37:32;;;;;;;0.00;0.00;;;;;;;15.39;77.63;100108.50;7363104;19;20502;-59
2022/05/16 06:39:57;;;;;;;0.00;0.00;;;;;;;15.39;77.83;100105.88;7362372;19;20010;-60
2022/05/16 06:42:23;;;;;;;0.00;0.00;;;;;;;15.46;77.05;100113.38;7358990;19;20085;-60
2022/05/16 06:44:48;;;;;;;0.00;0.00;;;;;;;15.50;77.33;100108.78;7364737;19;20790;-57
2022/05/16 06:47:14;;;;;;;0.00;0.00;;;;;;;15.53;76.65;100125.28;7363372;19;20019;-58
2022/05/16 06:49:39;;;;;;;0.00;0.00;;;;;;;15.50;76.15;100119.31;7363065;19;20041;-59
2022/05/16 06:52:05;;;;;;;0.00;0.00;;;;;;;15.56;76.66;100119.00;7358347;19;20365;-60
2022/05/16 06:54:30;;;;;;;0.00;0.00;;;;;;;15.63;76.21;100127.44;7362288;19;20861;-58
2022/05/16 06:56:56;;;;;;;0.00;0.00;;;;;;;15.52;76.50;100112.22;7357095;19;20025;-59
2022/05/16 06:59:21;;;;;;;0.00;0.00;;;;;;;15.67;76.33;100135.13;7360012;19;20011;-60
2022/05/16 07:01:47;;;;;;;0.10;0.10;;;;;;;15.70;76.33;100129.69;7358671;19;20034;-59
2022/05/16 07:04:12;;;;;;;0.00;0.00;;;;;;;15.70;76.16;100127.03;7359683;19;21098;-58
2022/05/16 07:06:37;;;;;;;0.00;0.00;;;;;;;15.72;76.45;100114.66;7358168;19;20014;-60
2022/05/16 07:09:03;;;;;;;0.10;0.10;;;;;;;15.74;76.76;100112.78;7363171;19;20041;-58
2022/05/16 07:11:30;;;;;;;0.00;0.00;;;;;;;15.77;76.68;100120.53;7361361;19;20014;-60
2022/05/16 07:13:55;;;;;;;0.10;0.10;;;;;;;15.80;77.07;100120.34;7362904;19;20455;-57
2022/05/16 07:16:21;;;;;;;0.00;0.00;;;;;;;15.82;77.39;100115.88;7360450;19;20038;-59
2022/05/16 07:18:46;;;;;;;0.00;0.00;;;;;;;15.86;76.87;100115.69;7364127;19;20037;-59
2022/05/16 07:21:12;;;;;;;0.00;0.00;;;;;;;15.88;77.12;100125.22;7362968;19;20007;-59
2022/05/16 07:23:37;;;;;;;0.10;0.10;;;;;;;15.91;76.91;100124.19;7359194;19;20213;-60
2022/05/16 07:28:46;;;;;;;0.00;0.00;;;;;;;15.92;76.93;100131.19;7362516;19;20857;-59
2022/05/16 07:31:12;;;;;;;0.00;0.00;;;;;;;15.98;77.27;100138.75;7361450;19;20006;-58
2022/05/16 07:33:37;;;;;;;0.03;0.03;;;;;;;16.01;76.93;100138.56;7362772;19;20894;-58
2022/05/16 07:36:04;;;;;;;0.00;0.00;;;;;;;16.04;76.78;100146.31;7357066;19;20030;-58
2022/05/16 07:38:29;;;;;;;0.10;0.10;;;;;;;16.08;76.47;100147.84;7361956;19;20006;-58
2022/05/16 07:40:56;;;;;;;0.00;0.00;;;;;;;16.11;77.08;100150.31;7362141;19;20031;-57
2022/05/16 07:43:22;;;;;;;0.10;0.10;;;;;;;16.01;77.40;100131.50;7358675;19;20010;-59
2022/05/16 07:45:48;;;;;;;0.00;0.00;;;;;;;16.17;77.17;100152.63;7360666;19;20476;-58
2022/05/16 07:48:15;;;;;;;0.10;0.10;;;;;;;16.22;77.41;100152.34;7362496;19;20007;-58
2022/05/16 07:50:41;;;;;;;0.10;0.10;;;;;;;16.25;76.81;100149.56;7361835;19;20030;-58
2022/05/16 07:53:12;;;;;;;0.03;0.03;;;;;;;16.31;76.44;100160.59;7358892;19;20492;-59
2022/05/16 07:55:44;;;;;;;0.10;0.10;;;;;;;16.32;76.55;100158.81;7358905;19;20119;-58
2022/05/16 07:58:09;;;;;;;0.00;0.00;;;;;;;16.40;76.02;100168.94;7355386;19;20097;-59
2022/05/16 08:00:35;;;;;;;0.00;0.00;;;;;;;16.42;76.11;100159.16;7357317;19;20066;-59
2022/05/16 08:03:02;;;;;;;0.00;0.00;;;;;;;16.41;76.02;100150.41;7357941;19;20011;-58
2022/05/16 08:05:27;;;;;;;0.00;0.00;;;;;;;16.41;75.96;100142.50;7359315;19;20481;-58
2022/05/16 08:10:39;;;;;;;0.00;0.00;;;;;;;16.68;75.88;100168.28;7354400;19;20043;-59
2022/05/16 08:13:09;;;;;;;0.10;0.10;;;;;;;16.75;76.00;100170.50;7352905;19;20041;-59
2022/05/16 08:15:36;;;;;;;0.00;0.00;;;;;;;16.78;76.27;100170.34;7361715;19;20030;-59
2022/05/16 08:18:02;;;;;;;0.00;0.00;;;;;;;16.85;75.94;100176.09;7359159;19;20007;-58
2022/05/16 08:20:29;;;;;;;0.00;0.00;;;;;;;16.92;75.98;100176.59;7361887;19;20022;-59
2022/05/16 08:22:55;;;;;;;0.08;0.08;;;;;;;16.96;75.48;100178.13;7361039;19;20470;-57
2022/05/16 08:25:21;;;;;;;0.00;0.00;;;;;;;16.98;75.02;100181.50;7361904;19;20014;-57
2022/05/16 08:27:50;;;;;;;0.00;0.00;;;;;;;16.99;74.73;100185.88;7363824;19;20010;-58
2022/05/16 08:30:17;;;;;;;0.00;0.00;;;;;;;16.94;74.97;100177.38;7361942;19;20098;-58
2022/05/16 08:32:43;;;;;;;0.00;0.00;;;;;;;17.01;74.99;100198.00;7361994;19;20030;-59
2022/05/16 08:35:11;;;;;;;0.10;0.10;;;;;;;17.01;74.90;100191.88;7361837;19;20569;-58
2022/05/16 08:40:24;;;;;;;0.00;0.00;;;;;;;16.91;74.86;100183.66;7355006;19;20048;-56
2022/05/16 08:43:07;;;;;;;0.00;0.00;;;;;;;17.05;74.41;100203.97;7362881;19;20044;-58
2022/05/16 08:45:39;;;;;;;0.03;0.03;;;;;;;17.02;74.83;100197.06;7365020;19;20022;-58
2022/05/16 08:48:15;;;;;;;0.00;0.00;;;;;;;17.02;74.59;100201.50;7362425;19;20018;-58
2022/05/16 08:50:52;;;;;;;0.03;0.03;;;;;;;17.05;74.71;100207.47;7361549;19;20005;-58
2022/05/16 08:53:33;;;;;;;0.00;0.00;;;;;;;17.10;74.56;100207.19;7362585;19;20052;-58
2022/05/16 08:56:05;;;;;;;0.00;0.00;;;;;;;17.11;74.99;100214.16;7360829;19;20037;-59
2022/05/16 08:58:34;;;;;;;0.00;0.00;;;;;;;17.15;75.42;100210.41;7363148;19;20003;-56
2022/05/16 09:01:04;;;;;;;0.00;0.00;;;;;;;17.18;75.30;100212.84;7360446;19;20019;-58
2022/05/16 09:03:52;;;;;;;0.05;0.05;;;;;;;17.23;74.93;100210.81;7362597;19;20680;-58
2022/05/16 09:06:23;;;;;;;0.00;0.00;;;;;;;17.26;75.65;100215.91;7260086;19;2004337;-59
2022/05/16 09:08:53;;;;;;;0.00;0.00;;;;;;;17.30;75.58;100212.16;7363005;19;20352;-58
2022/05/16 09:11:45;;;;;;;0.00;0.00;;;;;;;17.36;75.41;100214.44;7361454;19;20090;-58
2022/05/16 09:14:29;;;;;;;0.00;0.00;;;;;;;17.46;74.81;100221.81;7258275;19;2004400;-58
2022/05/16 09:17:00;;;;;;;0.00;0.00;;;;;;;17.46;75.97;100214.75;7361739;19;20010;-58
2022/05/16 09:19:28;;;;;;;0.00;0.00;;;;;;;17.53;76.38;100221.34;7360450;19;20010;-59
2022/05/16 09:22:21;;;;;;;0.10;0.10;;;;;;;17.69;75.05;100221.31;7360865;19;20788;-58
2022/05/16 09:24:55;;;;;;;0.10;0.10;;;;;;;17.72;75.57;100217.63;7362332;19;20006;-58
2022/05/16 09:30:06;;;;;;;0.00;0.00;;;;;;;17.98;75.20;100231.94;7361970;19;20034;-57
2022/05/16 09:32:36;;;;;;;0.10;0.10;;;;;;;18.13;74.80;100231.84;7360557;19;20095;-57
2022/05/16 09:35:02;;;;;;;0.00;0.00;;;;;;;18.21;74.50;100241.97;7360972;19;22768;-58
2022/05/16 09:37:28;;;;;;;0.10;0.10;;;;;;;18.27;74.93;100238.94;7360820;19;20095;-56
2022/05/16 09:39:53;;;;;;;0.00;0.00;;;;;;;18.36;74.67;100248.09;7360772;19;20006;-59
2022/05/16 09:42:21;;;;;;;0.10;0.10;;;;;;;18.45;74.73;100249.28;7360439;19;20704;-58
2022/05/16 09:45:10;;;;;;;0.00;0.00;;;;;;;18.57;73.97;100240.59;7360482;19;20470;-57
2022/05/16 09:47:41;;;;;;;0.00;0.00;;;;;;;18.61;74.47;100250.06;7358648;19;20014;-58
2022/05/16 09:50:21;;;;;;;0.10;0.10;;;;;;;18.71;74.85;100253.84;7362219;19;20069;-57
2022/05/16 09:52:50;;;;;;;0.00;0.00;;;;;;;18.75;74.83;100247.38;7358159;19;20034;-57
2022/05/16 09:55:41;;;;;;;0.10;0.10;;;;;;;18.89;74.29;100251.81;7361754;19;20006;-58
2022/05/16 09:58:18;;;;;;;0.00;0.00;;;;;;;18.99;74.29;100258.19;7361217;19;20596;-58
2022/05/16 10:01:01;;;;;;;0.00;0.00;;;;;;;19.01;74.13;100250.16;7360258;19;20018;-58
2022/05/16 10:03:31;;;;;;;0.10;0.10;;;;;;;19.10;74.50;100265.44;7359699;19;20481;-58
2022/05/16 10:05:59;;;;;;;0.10;0.10;;;;;;;19.08;74.59;100247.03;7359073;19;20015;-59
2022/05/16 10:08:39;;;;;;;0.10;0.10;;;;;;;19.26;74.38;100260.84;7359158;19;21180;-56
2022/05/16 10:11:08;;;;;;;0.10;0.10;;;;;;;19.44;74.85;100261.44;7359207;19;20015;-57
2022/05/16 10:13:34;;;;;;;0.00;0.00;;;;;;;19.62;73.31;100260.25;7358966;19;20014;-58
2022/05/16 10:16:05;;;;;;;0.08;0.08;;;;;;;19.82;73.47;100253.59;7361426;19;20014;-58
2022/05/16 10:18:38;;;;;;;0.10;0.10;;;;;;;20.05;73.08;100254.66;7361508;19;20018;-57
2022/05/16 10:21:10;;;;;;;0.10;0.10;;;;;;;20.28;72.75;100254.88;7359371;19;20018;-59
2022/05/16 10:23:39;;;;;;;0.05;0.05;;;;;;;20.56;71.62;100253.78;7358992;19;20089;-57
2022/05/16 10:26:12;;;;;;;0.05;0.05;;;;;;;20.57;70.06;100211.22;7359633;19;20007;-58
2022/05/16 10:28:41;;;;;;;0.00;0.00;;;;;;;21.10;69.52;100253.41;7358832;19;20572;-57
2022/05/16 10:34:07;;;;;;;0.10;0.10;;;;;;;21.77;70.67;100248.34;7361030;19;20023;-58
2022/05/16 10:36:35;;;;;;;0.10;0.10;;;;;;;22.12;69.75;100252.78;7359158;19;20395;-59
2022/05/16 10:39:09;;;;;;;0.10;0.10;;;;;;;22.60;68.23;100252.53;7358376;19;20018;-59
2022/05/16 10:41:50;;;;;;;0.00;0.00;;;;;;;23.03;67.89;100256.13;7358486;19;20494;-59
2022/05/16 10:44:58;;;;;;;0.00;0.00;;;;;;;23.44;67.87;100262.50;7358286;19;20007;-58
2022/05/16 10:47:48;;;;;;;0.10;0.10;;;;;;;23.84;66.45;100250.34;7258076;19;2004444;-59
2022/05/16 10:50:42;;;;;;;0.10;0.10;;;;;;;24.30;67.11;100263.22;7362924;19;20007;-59
2022/05/16 10:53:13;;;;;;;0.10;0.10;;;;;;;24.49;62.35;100258.00;7263744;19;2004318;-57
2022/05/16 10:55:53;;;;;;;0.10;0.10;;;;;;;24.56;61.08;100261.81;7364629;19;20015;-59
2022/05/16 10:58:27;;;;;;;0.10;0.10;;;;;;;24.44;61.48;100265.56;7366832;19;20097;-59
2022/05/16 11:01:19;;;;;;;0.08;0.08;;;;;;;24.41;62.31;100270.31;7362078;19;20015;-59
2022/05/16 11:04:07;;;;;;;0.10;0.10;;;;;;;24.21;63.18;100270.19;7263250;19;2006445;-58
2022/05/16 11:07:06;;;;;;;0.10;0.10;;;;;;;24.17;64.95;100268.75;7359142;19;20008;-58
2022/05/16 11:10:00;;;;;;;0.10;0.10;;;;;;;24.36;63.44;100276.06;7260699;19;2004002;-58
2022/05/16 11:12:51;;;;;;;0.10;0.10;;;;;;;24.52;63.41;100275.56;7259378;19;2004383;-58
2022/05/16 11:15:34;;;;;;;0.10;0.10;;;;;;;24.54;61.58;100281.63;7259639;19;2004503;-57
2022/05/16 11:18:32;;;;;;;0.00;0.00;;;;;;;24.59;63.26;100279.41;7355924;19;20625;-59
2022/05/16 11:21:18;;;;;;;0.10;0.10;;;;;;;24.71;63.71;100272.13;7257999;19;2004326;-59
2022/05/16 11:24:05;;;;;;;0.00;0.00;;;;;;;24.71;64.15;100266.78;7358598;19;20007;-59
2022/05/16 11:26:50;;;;;;;0.10;0.10;;;;;;;24.66;61.28;100277.00;7359071;19;20398;-57
2022/05/16 11:29:26;;;;;;;0.10;0.10;;;;;;;24.49;60.91;100284.69;7361150;19;20011;-57
2022/05/16 11:31:55;;;;;;;0.10;0.10;;;;;;;24.18;61.54;100297.16;7356557;19;20006;-59
2022/05/16 11:34:44;;;;;;;0.10;0.10;;;;;;;23.96;62.43;100292.78;7361436;19;20066;-58
2022/05/16 11:37:42;;;;;;;0.10;0.10;;;;;;;23.73;62.56;100291.25;7362721;19;20030;-58
2022/05/16 11:40:20;;;;;;;0.10;0.10;;;;;;;23.66;63.52;100292.72;7261606;19;2004302;-59
2022/05/16 11:42:55;;;;;;;0.08;0.08;;;;;;;23.81;64.99;100288.75;7361787;19;20402;-57
2022/05/16 11:45:37;;;;;;;0.05;0.05;;;;;;;24.13;65.50;100283.38;7359989;19;20017;-59
2022/05/16 11:48:24;;;;;;;0.10;0.10;;;;;;;24.55;66.12;100277.97;7356675;19;20030;-58
2022/05/16 11:51:07;;;;;;;0.10;0.10;;;;;;;25.00;64.51;100281.03;7358623;19;20025;-57
2022/05/16 11:53:54;;;;;;;0.10;0.10;;;;;;;25.76;64.23;100280.44;7358336;19;20006;-58
2022/05/16 12:02:17;;;;;;;0.10;0.10;;;;;;;27.50;58.70;100279.63;7254596;19;2004614;-58
2022/05/16 12:04:47;;;;;;;0.00;0.00;;;;;;;27.81;57.15;100276.56;7358802;19;20420;-58
2022/05/16 12:07:22;;;;;;;0.10;0.10;;;;;;;28.16;53.91;100287.19;7358521;19;20078;-58
2022/05/16 12:10:20;;;;;;;0.10;0.10;;;;;;;28.30;53.19;100277.72;7358698;19;20010;-58
2022/05/16 12:13:07;;;;;;;0.10;0.10;;;;;;;28.34;52.17;100289.03;7253963;19;2004619;-57
2022/05/16 12:15:33;;;;;;;0.10;0.10;;;;;;;27.98;51.60;100277.50;7351512;19;20014;-58